sensor_id;sensor_type;location;lat;lon;timestamp;P1;durP1;ratioP1;P2;durP2;ratioP2
62933;SDS011;49038;47.600;19.242;2023-11-19T00:00:21;8.55;;;5.90;;
62933;SDS011;49038;47.600;19.242;2023-11-19T00:03:23;16.45;;;7.93;;
62933;SDS011;49038;47.600;19.242;2023-11-19T00:06:26;9.57;;;7.35;;
62933;SDS011;49038;47.600;19.242;2023-11-19T00:09:29;15.20;;;8.73;;
62933;SDS011;49038;47.600;19.242;2023-11-19T00:12:32;12.37;;;6.80;;
62933;SDS011;49038;47.600;19.242;2023-11-19T00:15:34;18.30;;;7.95;;
62933;SDS011;49038;47.600;19.242;2023-11-19T00:18:36;15.32;;;9.38;;
62933;SDS011;49038;47.600;19.242;2023-11-19T00:21:39;9.15;;;6.43;;
62933;SDS011;49038;47.600;19.242;2023-11-19T00:24:43;14.60;;;7.72;;
62933;SDS011;49038;47.600;19.242;2023-11-19T00:27:46;17.05;;;8.32;;
62933;SDS011;49038;47.600;19.242;2023-11-19T00:30:49;12.65;;;8.85;;
62933;SDS011;49038;47.600;19.242;2023-11-19T00:33:51;8.65;;;6.80;;
62933;SDS011;49038;47.600;19.242;2023-11-19T00:36:53;13.02;;;7.22;;
62933;SDS011;49038;47.600;19.242;2023-11-19T00:39:57;7.47;;;6.15;;
62933;SDS011;49038;47.600;19.242;2023-11-19T00:43:00;8.15;;;6.18;;
62933;SDS011;49038;47.600;19.242;2023-11-19T00:46:02;7.90;;;6.35;;
62933;SDS011;49038;47.600;19.242;2023-11-19T00:49:05;8.27;;;5.35;;
62933;SDS011;49038;47.600;19.242;2023-11-19T00:52:07;5.20;;;4.70;;
62933;SDS011;49038;47.600;19.242;2023-11-19T00:55:10;6.80;;;4.75;;
62933;SDS011;49038;47.600;19.242;2023-11-19T00:58:13;5.00;;;3.72;;
62933;SDS011;49038;47.600;19.242;2023-11-19T01:01:15;6.57;;;2.95;;
62933;SDS011;49038;47.600;19.242;2023-11-19T01:04:18;7.62;;;5.05;;
62933;SDS011;49038;47.600;19.242;2023-11-19T01:07:20;5.40;;;4.07;;
62933;SDS011;49038;47.600;19.242;2023-11-19T01:10:23;5.97;;;4.45;;
62933;SDS011;49038;47.600;19.242;2023-11-19T01:13:27;11.23;;;6.22;;
62933;SDS011;49038;47.600;19.242;2023-11-19T01:16:30;5.20;;;4.72;;
62933;SDS011;49038;47.600;19.242;2023-11-19T01:19:32;5.78;;;4.22;;
62933;SDS011;49038;47.600;19.242;2023-11-19T01:22:35;6.37;;;3.97;;
62933;SDS011;49038;47.600;19.242;2023-11-19T01:25:37;9.85;;;4.95;;
62933;SDS011;49038;47.600;19.242;2023-11-19T01:28:40;3.37;;;3.08;;
62933;SDS011;49038;47.600;19.242;2023-11-19T01:31:53;4.25;;;3.12;;
62933;SDS011;49038;47.600;19.242;2023-11-19T01:34:55;4.35;;;3.53;;
62933;SDS011;49038;47.600;19.242;2023-11-19T01:37:57;6.57;;;4.03;;
62933;SDS011;49038;47.600;19.242;2023-11-19T01:41:00;7.28;;;3.42;;
62933;SDS011;49038;47.600;19.242;2023-11-19T01:44:07;9.57;;;3.30;;
62933;SDS011;49038;47.600;19.242;2023-11-19T01:47:10;5.45;;;4.35;;
62933;SDS011;49038;47.600;19.242;2023-11-19T01:50:12;4.30;;;3.30;;
62933;SDS011;49038;47.600;19.242;2023-11-19T01:53:14;4.53;;;3.37;;
62933;SDS011;49038;47.600;19.242;2023-11-19T01:56:17;3.85;;;3.47;;
62933;SDS011;49038;47.600;19.242;2023-11-19T01:59:19;3.22;;;2.92;;
62933;SDS011;49038;47.600;19.242;2023-11-19T02:02:28;4.85;;;4.18;;
62933;SDS011;49038;47.600;19.242;2023-11-19T02:05:30;11.90;;;4.80;;
62933;SDS011;49038;47.600;19.242;2023-11-19T02:08:34;5.57;;;4.40;;
62933;SDS011;49038;47.600;19.242;2023-11-19T02:11:36;4.55;;;4.12;;
62933;SDS011;49038;47.600;19.242;2023-11-19T02:14:41;6.32;;;4.95;;
62933;SDS011;49038;47.600;19.242;2023-11-19T02:17:44;11.05;;;5.22;;
62933;SDS011;49038;47.600;19.242;2023-11-19T02:20:46;3.60;;;3.30;;
62933;SDS011;49038;47.600;19.242;2023-11-19T02:23:51;3.15;;;2.78;;
62933;SDS011;49038;47.600;19.242;2023-11-19T02:26:58;3.95;;;3.58;;
62933;SDS011;49038;47.600;19.242;2023-11-19T02:30:23;3.95;;;3.25;;
62933;SDS011;49038;47.600;19.242;2023-11-19T02:33:28;4.80;;;3.35;;
62933;SDS011;49038;47.600;19.242;2023-11-19T02:36:31;2.80;;;2.50;;
62933;SDS011;49038;47.600;19.242;2023-11-19T02:39:34;4.85;;;3.97;;
62933;SDS011;49038;47.600;19.242;2023-11-19T02:42:36;7.65;;;3.95;;
62933;SDS011;49038;47.600;19.242;2023-11-19T02:45:39;7.72;;;5.70;;
62933;SDS011;49038;47.600;19.242;2023-11-19T02:48:41;7.45;;;4.82;;
62933;SDS011;49038;47.600;19.242;2023-11-19T02:51:45;4.25;;;3.58;;
62933;SDS011;49038;47.600;19.242;2023-11-19T02:54:47;4.43;;;3.05;;
62933;SDS011;49038;47.600;19.242;2023-11-19T02:57:49;2.25;;;2.05;;
62933;SDS011;49038;47.600;19.242;2023-11-19T03:00:52;4.57;;;3.08;;
62933;SDS011;49038;47.600;19.242;2023-11-19T03:04:00;7.55;;;3.87;;
62933;SDS011;49038;47.600;19.242;2023-11-19T03:07:04;4.53;;;3.45;;
62933;SDS011;49038;47.600;19.242;2023-11-19T03:10:07;4.18;;;3.20;;
62933;SDS011;49038;47.600;19.242;2023-11-19T03:13:11;3.30;;;3.05;;
62933;SDS011;49038;47.600;19.242;2023-11-19T03:16:18;6.45;;;3.92;;
62933;SDS011;49038;47.600;19.242;2023-11-19T03:19:21;6.32;;;3.65;;
62933;SDS011;49038;47.600;19.242;2023-11-19T03:22:27;4.57;;;4.07;;
62933;SDS011;49038;47.600;19.242;2023-11-19T03:25:29;6.30;;;4.62;;
62933;SDS011;49038;47.600;19.242;2023-11-19T03:28:35;8.65;;;3.92;;
62933;SDS011;49038;47.600;19.242;2023-11-19T03:31:41;5.78;;;3.87;;
62933;SDS011;49038;47.600;19.242;2023-11-19T03:34:44;6.10;;;3.75;;
62933;SDS011;49038;47.600;19.242;2023-11-19T03:37:46;3.80;;;3.28;;
62933;SDS011;49038;47.600;19.242;2023-11-19T03:40:49;7.20;;;5.50;;
62933;SDS011;49038;47.600;19.242;2023-11-19T03:43:51;7.55;;;6.37;;
62933;SDS011;49038;47.600;19.242;2023-11-19T03:46:53;17.35;;;7.15;;
62933;SDS011;49038;47.600;19.242;2023-11-19T03:49:56;8.07;;;6.47;;
62933;SDS011;49038;47.600;19.242;2023-11-19T03:52:58;8.25;;;5.35;;
62933;SDS011;49038;47.600;19.242;2023-11-19T03:56:01;9.90;;;5.95;;
62933;SDS011;49038;47.600;19.242;2023-11-19T03:59:03;14.75;;;8.75;;
62933;SDS011;49038;47.600;19.242;2023-11-19T04:02:05;21.95;;;9.93;;
62933;SDS011;49038;47.600;19.242;2023-11-19T04:05:08;16.00;;;8.75;;
62933;SDS011;49038;47.600;19.242;2023-11-19T04:08:11;11.55;;;7.68;;
62933;SDS011;49038;47.600;19.242;2023-11-19T04:11:14;5.60;;;4.45;;
62933;SDS011;49038;47.600;19.242;2023-11-19T04:14:16;7.90;;;6.57;;
62933;SDS011;49038;47.600;19.242;2023-11-19T04:17:20;21.05;;;9.75;;
62933;SDS011;49038;47.600;19.242;2023-11-19T04:20:22;27.77;;;8.82;;
62933;SDS011;49038;47.600;19.242;2023-11-19T04:23:24;20.60;;;10.35;;
62933;SDS011;49038;47.600;19.242;2023-11-19T04:26:27;27.15;;;14.57;;
62933;SDS011;49038;47.600;19.242;2023-11-19T04:29:29;34.53;;;12.07;;
62933;SDS011;49038;47.600;19.242;2023-11-19T04:32:32;21.87;;;12.32;;
62933;SDS011;49038;47.600;19.242;2023-11-19T04:35:34;20.45;;;12.52;;
62933;SDS011;49038;47.600;19.242;2023-11-19T04:38:37;44.90;;;17.12;;
62933;SDS011;49038;47.600;19.242;2023-11-19T04:41:47;53.87;;;19.67;;
62933;SDS011;49038;47.600;19.242;2023-11-19T04:44:50;67.80;;;23.75;;
62933;SDS011;49038;47.600;19.242;2023-11-19T04:47:53;108.18;;;34.25;;
62933;SDS011;49038;47.600;19.242;2023-11-19T04:50:55;55.42;;;19.10;;
62933;SDS011;49038;47.600;19.242;2023-11-19T04:53:57;38.00;;;15.10;;
62933;SDS011;49038;47.600;19.242;2023-11-19T04:56:59;33.72;;;14.65;;
62933;SDS011;49038;47.600;19.242;2023-11-19T05:00:02;26.20;;;12.32;;
62933;SDS011;49038;47.600;19.242;2023-11-19T05:03:18;29.30;;;10.07;;
62933;SDS011;49038;47.600;19.242;2023-11-19T05:06:20;28.65;;;11.75;;
62933;SDS011;49038;47.600;19.242;2023-11-19T05:09:22;20.27;;;8.55;;
62933;SDS011;49038;47.600;19.242;2023-11-19T05:12:25;26.33;;;8.80;;
62933;SDS011;49038;47.600;19.242;2023-11-19T05:15:27;17.42;;;8.85;;
62933;SDS011;49038;47.600;19.242;2023-11-19T05:18:29;16.67;;;7.90;;
62933;SDS011;49038;47.600;19.242;2023-11-19T05:21:31;22.98;;;9.15;;
62933;SDS011;49038;47.600;19.242;2023-11-19T05:24:34;13.05;;;6.85;;
62933;SDS011;49038;47.600;19.242;2023-11-19T05:27:37;12.90;;;5.78;;
62933;SDS011;49038;47.600;19.242;2023-11-19T05:30:40;10.80;;;5.87;;
62933;SDS011;49038;47.600;19.242;2023-11-19T05:33:43;18.77;;;8.90;;
62933;SDS011;49038;47.600;19.242;2023-11-19T05:36:45;9.63;;;5.28;;
62933;SDS011;49038;47.600;19.242;2023-11-19T05:39:47;9.73;;;5.90;;
62933;SDS011;49038;47.600;19.242;2023-11-19T05:42:50;7.85;;;5.15;;
62933;SDS011;49038;47.600;19.242;2023-11-19T05:45:52;9.73;;;6.00;;
62933;SDS011;49038;47.600;19.242;2023-11-19T05:48:54;12.77;;;5.72;;
62933;SDS011;49038;47.600;19.242;2023-11-19T05:51:56;10.93;;;5.28;;
62933;SDS011;49038;47.600;19.242;2023-11-19T05:55:00;5.50;;;4.18;;
62933;SDS011;49038;47.600;19.242;2023-11-19T05:58:06;16.77;;;7.32;;
62933;SDS011;49038;47.600;19.242;2023-11-19T06:01:13;5.75;;;5.22;;
62933;SDS011;49038;47.600;19.242;2023-11-19T06:04:15;13.45;;;4.25;;
62933;SDS011;49038;47.600;19.242;2023-11-19T06:07:18;8.02;;;4.60;;
62933;SDS011;49038;47.600;19.242;2023-11-19T06:10:20;5.87;;;5.28;;
62933;SDS011;49038;47.600;19.242;2023-11-19T06:13:22;6.80;;;3.42;;
62933;SDS011;49038;47.600;19.242;2023-11-19T06:16:26;6.40;;;3.62;;
62933;SDS011;49038;47.600;19.242;2023-11-19T06:19:28;5.75;;;3.67;;
62933;SDS011;49038;47.600;19.242;2023-11-19T06:22:32;8.27;;;5.07;;
62933;SDS011;49038;47.600;19.242;2023-11-19T06:25:34;6.68;;;4.18;;
62933;SDS011;49038;47.600;19.242;2023-11-19T06:28:37;6.28;;;5.15;;
62933;SDS011;49038;47.600;19.242;2023-11-19T06:31:40;7.35;;;5.05;;
62933;SDS011;49038;47.600;19.242;2023-11-19T06:34:43;4.87;;;4.05;;
62933;SDS011;49038;47.600;19.242;2023-11-19T06:37:45;5.50;;;3.97;;
62933;SDS011;49038;47.600;19.242;2023-11-19T06:40:47;5.10;;;3.47;;
62933;SDS011;49038;47.600;19.242;2023-11-19T06:43:54;3.80;;;3.15;;
62933;SDS011;49038;47.600;19.242;2023-11-19T06:46:57;5.15;;;3.28;;
62933;SDS011;49038;47.600;19.242;2023-11-19T06:49:59;5.62;;;4.80;;
62933;SDS011;49038;47.600;19.242;2023-11-19T06:53:01;10.00;;;4.78;;
62933;SDS011;49038;47.600;19.242;2023-11-19T06:56:04;5.45;;;3.45;;
62933;SDS011;49038;47.600;19.242;2023-11-19T06:59:09;9.35;;;3.92;;
62933;SDS011;49038;47.600;19.242;2023-11-19T07:02:12;5.78;;;4.78;;
62933;SDS011;49038;47.600;19.242;2023-11-19T07:05:14;11.73;;;4.65;;
62933;SDS011;49038;47.600;19.242;2023-11-19T07:08:17;5.90;;;4.72;;
62933;SDS011;49038;47.600;19.242;2023-11-19T07:11:19;6.87;;;5.37;;
62933;SDS011;49038;47.600;19.242;2023-11-19T07:14:21;5.12;;;4.43;;
62933;SDS011;49038;47.600;19.242;2023-11-19T07:17:25;5.93;;;3.95;;
62933;SDS011;49038;47.600;19.242;2023-11-19T07:20:27;5.97;;;4.30;;
62933;SDS011;49038;47.600;19.242;2023-11-19T07:23:30;3.97;;;3.60;;
62933;SDS011;49038;47.600;19.242;2023-11-19T07:26:32;6.95;;;3.78;;
62933;SDS011;49038;47.600;19.242;2023-11-19T07:29:35;3.47;;;3.00;;
62933;SDS011;49038;47.600;19.242;2023-11-19T07:32:40;4.62;;;3.37;;
62933;SDS011;49038;47.600;19.242;2023-11-19T07:35:42;5.82;;;3.87;;
62933;SDS011;49038;47.600;19.242;2023-11-19T07:38:45;4.05;;;2.90;;
62933;SDS011;49038;47.600;19.242;2023-11-19T07:41:49;11.18;;;4.57;;
62933;SDS011;49038;47.600;19.242;2023-11-19T07:44:51;5.00;;;3.45;;
62933;SDS011;49038;47.600;19.242;2023-11-19T07:47:53;5.78;;;4.07;;
62933;SDS011;49038;47.600;19.242;2023-11-19T07:50:56;5.87;;;4.18;;
62933;SDS011;49038;47.600;19.242;2023-11-19T07:53:59;6.20;;;4.32;;
62933;SDS011;49038;47.600;19.242;2023-11-19T07:57:01;6.35;;;4.82;;
62933;SDS011;49038;47.600;19.242;2023-11-19T08:00:04;4.55;;;3.80;;
62933;SDS011;49038;47.600;19.242;2023-11-19T08:03:06;6.15;;;4.25;;
62933;SDS011;49038;47.600;19.242;2023-11-19T08:06:09;5.22;;;3.65;;
62933;SDS011;49038;47.600;19.242;2023-11-19T08:09:12;4.82;;;4.35;;
62933;SDS011;49038;47.600;19.242;2023-11-19T08:12:16;3.35;;;3.00;;
62933;SDS011;49038;47.600;19.242;2023-11-19T08:15:19;4.85;;;2.75;;
62933;SDS011;49038;47.600;19.242;2023-11-19T08:18:24;4.87;;;3.55;;
62933;SDS011;49038;47.600;19.242;2023-11-19T08:21:26;7.20;;;3.47;;
62933;SDS011;49038;47.600;19.242;2023-11-19T08:24:29;9.63;;;4.12;;
62933;SDS011;49038;47.600;19.242;2023-11-19T08:27:31;3.55;;;2.95;;
62933;SDS011;49038;47.600;19.242;2023-11-19T08:30:33;7.78;;;4.60;;
62933;SDS011;49038;47.600;19.242;2023-11-19T08:33:36;6.40;;;4.10;;
62933;SDS011;49038;47.600;19.242;2023-11-19T08:36:38;11.70;;;3.83;;
62933;SDS011;49038;47.600;19.242;2023-11-19T08:39:40;7.20;;;4.60;;
62933;SDS011;49038;47.600;19.242;2023-11-19T08:42:44;7.00;;;3.72;;
62933;SDS011;49038;47.600;19.242;2023-11-19T08:45:46;5.47;;;4.00;;
62933;SDS011;49038;47.600;19.242;2023-11-19T08:48:48;4.25;;;3.58;;
62933;SDS011;49038;47.600;19.242;2023-11-19T08:51:50;8.88;;;4.00;;
62933;SDS011;49038;47.600;19.242;2023-11-19T08:54:52;5.80;;;4.78;;
62933;SDS011;49038;47.600;19.242;2023-11-19T08:57:55;6.20;;;4.20;;
62933;SDS011;49038;47.600;19.242;2023-11-19T09:00:57;5.80;;;3.53;;
62933;SDS011;49038;47.600;19.242;2023-11-19T09:04:00;6.82;;;4.35;;
62933;SDS011;49038;47.600;19.242;2023-11-19T09:07:03;3.65;;;3.35;;
62933;SDS011;49038;47.600;19.242;2023-11-19T09:10:05;5.45;;;4.10;;
62933;SDS011;49038;47.600;19.242;2023-11-19T09:13:10;8.18;;;3.90;;
62933;SDS011;49038;47.600;19.242;2023-11-19T09:16:12;8.38;;;4.20;;
62933;SDS011;49038;47.600;19.242;2023-11-19T09:19:15;7.22;;;3.97;;
62933;SDS011;49038;47.600;19.242;2023-11-19T09:22:17;12.35;;;5.85;;
62933;SDS011;49038;47.600;19.242;2023-11-19T09:25:19;10.80;;;5.43;;
62933;SDS011;49038;47.600;19.242;2023-11-19T09:28:21;8.00;;;5.80;;
62933;SDS011;49038;47.600;19.242;2023-11-19T09:31:24;8.35;;;5.72;;
62933;SDS011;49038;47.600;19.242;2023-11-19T09:34:26;14.32;;;6.97;;
62933;SDS011;49038;47.600;19.242;2023-11-19T09:37:28;10.90;;;7.18;;
62933;SDS011;49038;47.600;19.242;2023-11-19T09:40:30;7.93;;;5.95;;
62933;SDS011;49038;47.600;19.242;2023-11-19T09:43:33;10.82;;;6.10;;
62933;SDS011;49038;47.600;19.242;2023-11-19T09:46:36;7.55;;;5.60;;
62933;SDS011;49038;47.600;19.242;2023-11-19T09:49:40;5.82;;;4.68;;
62933;SDS011;49038;47.600;19.242;2023-11-19T09:52:43;8.18;;;4.30;;
62933;SDS011;49038;47.600;19.242;2023-11-19T09:55:45;7.45;;;5.10;;
62933;SDS011;49038;47.600;19.242;2023-11-19T09:58:48;5.87;;;3.70;;
62933;SDS011;49038;47.600;19.242;2023-11-19T10:01:50;5.05;;;4.32;;
62933;SDS011;49038;47.600;19.242;2023-11-19T10:04:53;8.98;;;4.75;;
62933;SDS011;49038;47.600;19.242;2023-11-19T10:07:56;7.22;;;4.65;;
62933;SDS011;49038;47.600;19.242;2023-11-19T10:10:58;8.30;;;5.18;;
62933;SDS011;49038;47.600;19.242;2023-11-19T10:14:03;6.87;;;4.25;;
62933;SDS011;49038;47.600;19.242;2023-11-19T10:17:07;6.45;;;4.15;;
62933;SDS011;49038;47.600;19.242;2023-11-19T10:20:09;5.32;;;3.83;;
62933;SDS011;49038;47.600;19.242;2023-11-19T10:23:12;7.10;;;5.45;;
62933;SDS011;49038;47.600;19.242;2023-11-19T10:26:18;8.68;;;6.22;;
62933;SDS011;49038;47.600;19.242;2023-11-19T10:29:21;7.70;;;6.00;;
62933;SDS011;49038;47.600;19.242;2023-11-19T10:32:25;11.68;;;6.30;;
62933;SDS011;49038;47.600;19.242;2023-11-19T10:35:28;8.90;;;5.00;;
62933;SDS011;49038;47.600;19.242;2023-11-19T10:38:30;7.65;;;5.15;;
62933;SDS011;49038;47.600;19.242;2023-11-19T10:41:33;10.32;;;6.15;;
62933;SDS011;49038;47.600;19.242;2023-11-19T10:44:35;7.20;;;4.00;;
62933;SDS011;49038;47.600;19.242;2023-11-19T10:47:38;4.72;;;4.00;;
62933;SDS011;49038;47.600;19.242;2023-11-19T10:50:44;6.40;;;3.62;;
62933;SDS011;49038;47.600;19.242;2023-11-19T10:53:48;4.80;;;4.30;;
62933;SDS011;49038;47.600;19.242;2023-11-19T10:56:59;9.10;;;4.80;;
62933;SDS011;49038;47.600;19.242;2023-11-19T11:00:03;10.27;;;5.93;;
62933;SDS011;49038;47.600;19.242;2023-11-19T11:03:24;13.62;;;7.50;;
62933;SDS011;49038;47.600;19.242;2023-11-19T11:06:27;7.18;;;4.78;;
62933;SDS011;49038;47.600;19.242;2023-11-19T11:09:30;5.65;;;3.58;;
62933;SDS011;49038;47.600;19.242;2023-11-19T11:12:32;4.72;;;4.18;;
62933;SDS011;49038;47.600;19.242;2023-11-19T11:15:38;5.90;;;4.05;;
62933;SDS011;49038;47.600;19.242;2023-11-19T11:18:48;11.50;;;6.70;;
62933;SDS011;49038;47.600;19.242;2023-11-19T11:21:52;13.62;;;7.65;;
62933;SDS011;49038;47.600;19.242;2023-11-19T11:28:18;11.70;;;5.78;;
62933;SDS011;49038;47.600;19.242;2023-11-19T11:38:00;7.47;;;4.80;;
62933;SDS011;49038;47.600;19.242;2023-11-19T11:41:15;10.38;;;5.62;;
62933;SDS011;49038;47.600;19.242;2023-11-19T11:44:48;10.57;;;6.43;;
62933;SDS011;49038;47.600;19.242;2023-11-19T11:48:09;7.25;;;5.78;;
62933;SDS011;49038;47.600;19.242;2023-11-19T11:51:15;11.63;;;5.90;;
62933;SDS011;49038;47.600;19.242;2023-11-19T11:57:20;6.05;;;4.43;;
62933;SDS011;49038;47.600;19.242;2023-11-19T12:03:31;6.43;;;4.55;;
62933;SDS011;49038;47.600;19.242;2023-11-19T12:06:34;9.27;;;4.45;;
62933;SDS011;49038;47.600;19.242;2023-11-19T12:09:41;9.73;;;6.07;;
62933;SDS011;49038;47.600;19.242;2023-11-19T12:12:43;6.72;;;5.28;;
62933;SDS011;49038;47.600;19.242;2023-11-19T12:19:02;9.88;;;5.15;;
62933;SDS011;49038;47.600;19.242;2023-11-19T12:22:10;8.68;;;4.80;;
62933;SDS011;49038;47.600;19.242;2023-11-19T12:25:12;4.80;;;3.42;;
62933;SDS011;49038;47.600;19.242;2023-11-19T12:28:15;6.25;;;3.90;;
62933;SDS011;49038;47.600;19.242;2023-11-19T12:31:21;5.10;;;3.97;;
62933;SDS011;49038;47.600;19.242;2023-11-19T12:34:23;4.85;;;3.75;;
62933;SDS011;49038;47.600;19.242;2023-11-19T12:37:26;6.65;;;3.90;;
62933;SDS011;49038;47.600;19.242;2023-11-19T12:40:29;4.85;;;3.83;;
62933;SDS011;49038;47.600;19.242;2023-11-19T12:43:31;4.57;;;3.37;;
62933;SDS011;49038;47.600;19.242;2023-11-19T12:46:33;4.10;;;2.97;;
62933;SDS011;49038;47.600;19.242;2023-11-19T12:49:36;5.30;;;3.55;;
62933;SDS011;49038;47.600;19.242;2023-11-19T12:52:38;7.50;;;4.62;;
62933;SDS011;49038;47.600;19.242;2023-11-19T12:55:42;11.68;;;7.80;;
62933;SDS011;49038;47.600;19.242;2023-11-19T12:58:44;5.53;;;4.07;;
62933;SDS011;49038;47.600;19.242;2023-11-19T13:01:54;6.43;;;4.85;;
62933;SDS011;49038;47.600;19.242;2023-11-19T13:04:57;5.70;;;3.12;;
62933;SDS011;49038;47.600;19.242;2023-11-19T13:08:03;7.12;;;4.47;;
62933;SDS011;49038;47.600;19.242;2023-11-19T13:11:07;5.72;;;4.12;;
62933;SDS011;49038;47.600;19.242;2023-11-19T13:14:10;4.57;;;3.28;;
62933;SDS011;49038;47.600;19.242;2023-11-19T13:17:14;7.10;;;4.53;;
62933;SDS011;49038;47.600;19.242;2023-11-19T13:20:16;5.03;;;4.35;;
62933;SDS011;49038;47.600;19.242;2023-11-19T13:23:19;5.90;;;4.22;;
62933;SDS011;49038;47.600;19.242;2023-11-19T13:26:22;4.90;;;3.50;;
62933;SDS011;49038;47.600;19.242;2023-11-19T13:29:24;5.80;;;4.47;;
62933;SDS011;49038;47.600;19.242;2023-11-19T13:32:27;7.82;;;4.35;;
62933;SDS011;49038;47.600;19.242;2023-11-19T13:35:29;10.05;;;5.10;;
62933;SDS011;49038;47.600;19.242;2023-11-19T13:38:32;4.90;;;4.25;;
62933;SDS011;49038;47.600;19.242;2023-11-19T13:41:35;14.20;;;7.62;;
62933;SDS011;49038;47.600;19.242;2023-11-19T13:44:37;6.60;;;4.93;;
62933;SDS011;49038;47.600;19.242;2023-11-19T13:47:39;11.65;;;7.15;;
62933;SDS011;49038;47.600;19.242;2023-11-19T13:50:45;9.82;;;4.75;;
62933;SDS011;49038;47.600;19.242;2023-11-19T13:53:47;13.65;;;6.78;;
62933;SDS011;49038;47.600;19.242;2023-11-19T13:56:56;12.25;;;7.35;;
62933;SDS011;49038;47.600;19.242;2023-11-19T14:00:03;12.20;;;6.95;;
62933;SDS011;49038;47.600;19.242;2023-11-19T14:03:15;12.77;;;8.48;;
62933;SDS011;49038;47.600;19.242;2023-11-19T14:06:17;15.82;;;9.93;;
62933;SDS011;49038;47.600;19.242;2023-11-19T14:09:20;14.07;;;8.05;;
62933;SDS011;49038;47.600;19.242;2023-11-19T14:12:23;11.45;;;7.72;;
62933;SDS011;49038;47.600;19.242;2023-11-19T14:15:25;17.00;;;7.97;;
62933;SDS011;49038;47.600;19.242;2023-11-19T14:18:27;13.10;;;6.25;;
62933;SDS011;49038;47.600;19.242;2023-11-19T14:21:29;8.48;;;4.55;;
62933;SDS011;49038;47.600;19.242;2023-11-19T14:24:32;9.10;;;6.00;;
62933;SDS011;49038;47.600;19.242;2023-11-19T14:27:44;13.82;;;6.25;;
62933;SDS011;49038;47.600;19.242;2023-11-19T14:30:50;13.20;;;7.68;;
62933;SDS011;49038;47.600;19.242;2023-11-19T14:33:59;11.00;;;6.90;;
62933;SDS011;49038;47.600;19.242;2023-11-19T14:37:01;8.88;;;6.45;;
62933;SDS011;49038;47.600;19.242;2023-11-19T14:40:04;7.82;;;4.97;;
62933;SDS011;49038;47.600;19.242;2023-11-19T14:43:07;9.48;;;5.90;;
62933;SDS011;49038;47.600;19.242;2023-11-19T14:46:13;7.47;;;4.82;;
62933;SDS011;49038;47.600;19.242;2023-11-19T14:49:15;8.90;;;5.47;;
62933;SDS011;49038;47.600;19.242;2023-11-19T14:52:17;9.18;;;5.72;;
62933;SDS011;49038;47.600;19.242;2023-11-19T14:55:20;8.20;;;5.55;;
62933;SDS011;49038;47.600;19.242;2023-11-19T14:58:22;8.15;;;4.72;;
62933;SDS011;49038;47.600;19.242;2023-11-19T15:01:24;9.85;;;4.57;;
62933;SDS011;49038;47.600;19.242;2023-11-19T15:04:27;13.52;;;5.82;;
62933;SDS011;49038;47.600;19.242;2023-11-19T15:07:30;9.98;;;4.80;;
62933;SDS011;49038;47.600;19.242;2023-11-19T15:10:32;14.45;;;7.28;;
62933;SDS011;49038;47.600;19.242;2023-11-19T15:13:35;16.58;;;6.80;;
62933;SDS011;49038;47.600;19.242;2023-11-19T15:16:39;15.02;;;7.65;;
62933;SDS011;49038;47.600;19.242;2023-11-19T15:19:42;12.32;;;5.62;;
62933;SDS011;49038;47.600;19.242;2023-11-19T15:22:47;14.55;;;6.93;;
62933;SDS011;49038;47.600;19.242;2023-11-19T15:25:49;12.65;;;6.25;;
62933;SDS011;49038;47.600;19.242;2023-11-19T15:28:52;14.93;;;6.82;;
62933;SDS011;49038;47.600;19.242;2023-11-19T15:31:59;14.90;;;6.57;;
62933;SDS011;49038;47.600;19.242;2023-11-19T15:35:01;21.77;;;7.50;;
62933;SDS011;49038;47.600;19.242;2023-11-19T15:38:05;22.33;;;8.43;;
62933;SDS011;49038;47.600;19.242;2023-11-19T15:41:10;13.93;;;6.85;;
62933;SDS011;49038;47.600;19.242;2023-11-19T15:44:14;14.57;;;8.13;;
62933;SDS011;49038;47.600;19.242;2023-11-19T15:47:17;18.77;;;8.07;;
62933;SDS011;49038;47.600;19.242;2023-11-19T15:50:19;15.98;;;9.23;;
62933;SDS011;49038;47.600;19.242;2023-11-19T15:53:23;18.62;;;9.70;;
62933;SDS011;49038;47.600;19.242;2023-11-19T15:56:25;12.20;;;8.23;;
62933;SDS011;49038;47.600;19.242;2023-11-19T15:59:28;9.27;;;7.50;;
62933;SDS011;49038;47.600;19.242;2023-11-19T16:02:30;9.65;;;5.72;;
62933;SDS011;49038;47.600;19.242;2023-11-19T16:05:33;14.93;;;7.12;;
62933;SDS011;49038;47.600;19.242;2023-11-19T16:08:36;10.98;;;5.43;;
62933;SDS011;49038;47.600;19.242;2023-11-19T16:11:41;7.30;;;5.37;;
62933;SDS011;49038;47.600;19.242;2023-11-19T16:14:57;15.98;;;6.15;;
62933;SDS011;49038;47.600;19.242;2023-11-19T16:18:00;8.52;;;5.00;;
62933;SDS011;49038;47.600;19.242;2023-11-19T16:21:05;9.48;;;4.95;;
62933;SDS011;49038;47.600;19.242;2023-11-19T16:24:08;14.15;;;6.60;;
62933;SDS011;49038;47.600;19.242;2023-11-19T16:27:11;15.00;;;6.15;;
62933;SDS011;49038;47.600;19.242;2023-11-19T16:30:17;11.02;;;6.05;;
62933;SDS011;49038;47.600;19.242;2023-11-19T16:33:20;16.30;;;8.57;;
62933;SDS011;49038;47.600;19.242;2023-11-19T16:36:32;16.25;;;9.50;;
62933;SDS011;49038;47.600;19.242;2023-11-19T16:39:34;21.20;;;12.77;;
62933;SDS011;49038;47.600;19.242;2023-11-19T16:42:37;23.70;;;11.20;;
62933;SDS011;49038;47.600;19.242;2023-11-19T16:45:40;19.73;;;11.60;;
62933;SDS011;49038;47.600;19.242;2023-11-19T16:48:45;15.77;;;10.60;;
62933;SDS011;49038;47.600;19.242;2023-11-19T16:51:48;15.85;;;8.07;;
62933;SDS011;49038;47.600;19.242;2023-11-19T16:54:54;11.98;;;7.47;;
62933;SDS011;49038;47.600;19.242;2023-11-19T16:58:00;9.93;;;5.12;;
62933;SDS011;49038;47.600;19.242;2023-11-19T17:01:02;10.07;;;6.68;;
62933;SDS011;49038;47.600;19.242;2023-11-19T17:04:05;14.80;;;7.62;;
62933;SDS011;49038;47.600;19.242;2023-11-19T17:07:10;10.75;;;7.22;;
62933;SDS011;49038;47.600;19.242;2023-11-19T17:10:12;12.45;;;6.82;;
62933;SDS011;49038;47.600;19.242;2023-11-19T17:13:15;13.18;;;6.18;;
62933;SDS011;49038;47.600;19.242;2023-11-19T17:16:18;18.15;;;7.15;;
62933;SDS011;49038;47.600;19.242;2023-11-19T17:19:20;13.20;;;8.07;;
62933;SDS011;49038;47.600;19.242;2023-11-19T17:22:24;10.05;;;6.87;;
62933;SDS011;49038;47.600;19.242;2023-11-19T17:25:27;8.60;;;5.20;;
62933;SDS011;49038;47.600;19.242;2023-11-19T17:28:29;14.15;;;6.78;;
62933;SDS011;49038;47.600;19.242;2023-11-19T17:31:33;32.42;;;10.93;;
62933;SDS011;49038;47.600;19.242;2023-11-19T17:34:36;19.40;;;9.90;;
62933;SDS011;49038;47.600;19.242;2023-11-19T17:37:38;23.77;;;10.35;;
62933;SDS011;49038;47.600;19.242;2023-11-19T17:40:41;14.68;;;9.20;;
62933;SDS011;49038;47.600;19.242;2023-11-19T17:43:49;16.52;;;8.95;;
62933;SDS011;49038;47.600;19.242;2023-11-19T17:46:51;20.80;;;10.10;;
62933;SDS011;49038;47.600;19.242;2023-11-19T17:49:54;15.35;;;7.22;;
62933;SDS011;49038;47.600;19.242;2023-11-19T17:52:56;9.27;;;6.68;;
62933;SDS011;49038;47.600;19.242;2023-11-19T17:55:59;6.68;;;4.35;;
62933;SDS011;49038;47.600;19.242;2023-11-19T17:59:02;7.18;;;5.10;;
62933;SDS011;49038;47.600;19.242;2023-11-19T18:02:05;14.98;;;5.78;;
62933;SDS011;49038;47.600;19.242;2023-11-19T18:05:08;7.50;;;5.07;;
62933;SDS011;49038;47.600;19.242;2023-11-19T18:08:11;14.07;;;5.82;;
62933;SDS011;49038;47.600;19.242;2023-11-19T18:11:14;17.02;;;7.72;;
62933;SDS011;49038;47.600;19.242;2023-11-19T18:14:16;11.25;;;5.87;;
62933;SDS011;49038;47.600;19.242;2023-11-19T18:17:19;13.30;;;7.43;;
62933;SDS011;49038;47.600;19.242;2023-11-19T18:20:22;10.25;;;5.97;;